Terminal Aerodrome Forecast
Issued by NWS

Home | Current Version | Previous Version | Text Only | Print | Product List | Glossary Off
Versions: 1 2 3 4 5 6 7 8 9 10 11 12 13 14 15 16 17 18 19 20 21 22

222
FTUS43 KFGF 032339
TAFBJI
TAF
KBJI 032339Z 0400/0424 14009KT P6SM BKN120
     FM040400 15009KT 4SM -SN OVC015
     FM041000 15009KT 2SM -SN OVC008
     FM041600 17008KT P6SM OVC008
     FM042200 23008KT P6SM OVC008=

USA.gov is the U.S. government's official web portal to all federal, state and local government web resources and services.